createdAt,value
2018-05-06T00:02:14.052Z,18.66
2018-05-06T00:04:41.437Z,18.85
2018-05-06T00:07:08.823Z,18.82
2018-05-06T00:09:36.204Z,19.20
2018-05-06T00:12:03.575Z,18.78
2018-05-06T00:14:30.959Z,18.86
2018-05-06T00:16:58.339Z,19.02
2018-05-06T00:19:25.734Z,19.03
2018-05-06T00:21:53.150Z,19.12
2018-05-06T00:24:20.535Z,19.31
2018-05-06T00:26:47.924Z,18.98
2018-05-06T00:29:15.311Z,18.83
2018-05-06T00:31:42.702Z,18.91
2018-05-06T00:34:10.080Z,19.10
2018-05-06T00:36:37.459Z,19.18
2018-05-06T00:39:04.855Z,19.10
2018-05-06T00:41:32.236Z,19.08
2018-05-06T00:43:59.636Z,18.90
2018-05-06T00:46:27.112Z,18.92
2018-05-06T00:48:54.420Z,18.95
2018-05-06T00:51:21.791Z,18.85
2018-05-06T00:53:49.192Z,18.87
2018-05-06T00:56:16.573Z,18.83
2018-05-06T00:58:43.955Z,19.02
2018-05-06T01:01:11.340Z,19.05
2018-05-06T01:03:39.029Z,18.88
2018-05-06T01:06:06.664Z,18.64
2018-05-06T01:08:34.324Z,18.84
2018-05-06T01:11:01.939Z,18.82
2018-05-06T01:13:29.461Z,18.90
2018-05-06T01:15:56.852Z,18.63
2018-05-06T01:18:24.274Z,18.62
2018-05-06T01:20:51.646Z,18.60
2018-05-06T01:23:19.029Z,18.57
2018-05-06T01:25:46.404Z,18.58
2018-05-06T01:28:13.806Z,18.64
2018-05-06T01:30:41.195Z,18.88
2018-05-06T01:33:08.760Z,18.87
2018-05-06T01:35:36.150Z,18.96
2018-05-06T01:38:03.540Z,18.71
2018-05-06T01:40:30.927Z,18.53
2018-05-06T01:42:58.327Z,18.66
2018-05-06T01:48:01.703Z,18.63
2018-05-06T01:50:29.096Z,18.48
2018-05-06T01:52:56.492Z,18.42
2018-05-06T01:55:23.874Z,18.54
2018-05-06T01:57:51.274Z,18.21
2018-05-06T02:00:18.652Z,18.02
2018-05-06T02:02:46.034Z,18.11
2018-05-06T02:05:13.460Z,17.82
2018-05-06T02:07:40.843Z,17.90
2018-05-06T02:10:08.241Z,17.57
2018-05-06T02:12:35.731Z,17.63
2018-05-06T02:15:03.134Z,17.57
2018-05-06T02:17:30.530Z,17.65
2018-05-06T02:19:57.907Z,17.73
2018-05-06T02:22:25.283Z,17.87
2018-05-06T02:24:52.683Z,18.02
2018-05-06T02:27:20.066Z,18.05
2018-05-06T02:29:47.460Z,18.19
2018-05-06T02:32:14.850Z,17.89
2018-05-06T02:34:42.238Z,18.04
2018-05-06T02:37:09.619Z,18.14
2018-05-06T02:39:37.012Z,18.06
2018-05-06T02:42:04.395Z,18.01
2018-05-06T02:44:31.811Z,17.98
2018-05-06T02:46:59.196Z,18.05
2018-05-06T02:49:26.595Z,17.85
2018-05-06T02:51:53.979Z,17.97
2018-05-06T02:54:21.368Z,17.52
2018-05-06T02:56:48.764Z,17.47
2018-05-06T02:59:16.147Z,17.65
2018-05-06T03:01:43.529Z,17.64
2018-05-06T03:04:10.918Z,17.85
2018-05-06T03:06:38.304Z,17.89
2018-05-06T03:09:05.700Z,17.78
2018-05-06T03:11:33.074Z,17.71
2018-05-06T03:14:00.471Z,17.48
2018-05-06T03:16:27.865Z,17.65
2018-05-06T03:18:55.251Z,17.54
2018-05-06T03:21:22.656Z,17.58
2018-05-06T03:23:50.047Z,17.55
2018-05-06T03:26:17.440Z,17.38
2018-05-06T03:28:44.838Z,17.30
2018-05-06T03:31:12.223Z,17.29
2018-05-06T03:33:39.625Z,17.48
2018-05-06T03:36:07.019Z,17.45
2018-05-06T03:38:34.408Z,17.46
2018-05-06T03:41:01.791Z,17.42
2018-05-06T03:43:29.196Z,17.20
2018-05-06T03:45:56.575Z,17.02
2018-05-06T03:48:23.989Z,16.88
2018-05-06T03:50:51.371Z,16.97
2018-05-06T03:53:18.748Z,16.79
2018-05-06T03:55:47.687Z,16.89
2018-05-06T03:58:26.870Z,16.96
2018-05-06T04:00:54.263Z,17.10
2018-05-06T04:03:21.643Z,17.15
2018-05-06T04:05:49.057Z,17.17
2018-05-06T04:08:16.488Z,17.18
2018-05-06T04:10:43.991Z,17.07
2018-05-06T04:13:11.350Z,17.20
2018-05-06T04:15:38.759Z,17.13
2018-05-06T04:18:06.146Z,16.91
2018-05-06T04:20:33.539Z,16.89
2018-05-06T04:23:00.923Z,16.80
2018-05-06T04:25:28.326Z,16.76
2018-05-06T04:27:55.703Z,16.90
2018-05-06T04:30:23.099Z,16.95
2018-05-06T04:32:50.487Z,17.09
2018-05-06T04:35:17.885Z,16.93
2018-05-06T04:37:45.357Z,16.84
2018-05-06T04:40:12.816Z,16.89
2018-05-06T04:42:40.123Z,16.77
2018-05-06T04:45:07.615Z,16.78
2018-05-06T04:50:13.194Z,16.59
2018-05-06T04:52:40.551Z,16.48
2018-05-06T04:55:07.944Z,16.80
2018-05-06T04:57:35.323Z,16.78
2018-05-06T05:00:02.719Z,16.61
2018-05-06T05:02:30.092Z,16.63
2018-05-06T05:04:57.483Z,16.44
2018-05-06T05:07:24.854Z,16.72
2018-05-06T05:09:53.019Z,16.85
2018-05-06T05:12:20.448Z,16.66
2018-05-06T05:14:47.842Z,16.95
2018-05-06T05:17:15.232Z,16.98
2018-05-06T05:19:42.627Z,17.02
2018-05-06T05:22:10.021Z,17.02
2018-05-06T05:24:37.410Z,17.00
2018-05-06T05:27:05.210Z,16.94
2018-05-06T05:29:32.607Z,17.00
2018-05-06T05:31:59.989Z,16.91
2018-05-06T05:34:27.470Z,17.21
2018-05-06T05:36:54.767Z,17.31
2018-05-06T05:39:22.146Z,16.93
2018-05-06T05:41:49.523Z,17.32
2018-05-06T05:44:16.911Z,17.12
2018-05-06T05:46:44.457Z,17.16
2018-05-06T05:49:11.847Z,17.17
2018-05-06T05:51:39.242Z,17.40
2018-05-06T05:54:06.644Z,17.46
2018-05-06T05:56:34.036Z,17.18
2018-05-06T05:59:01.527Z,17.46
2018-05-06T06:01:28.961Z,17.55
2018-05-06T06:03:56.312Z,17.46
2018-05-06T06:06:23.711Z,17.60
2018-05-06T06:08:51.603Z,17.56
2018-05-06T06:11:18.988Z,17.68
2018-05-06T06:13:47.055Z,17.85
2018-05-06T06:16:14.431Z,17.83
2018-05-06T06:18:41.817Z,17.91
2018-05-06T06:21:09.279Z,17.76
2018-05-06T06:23:36.655Z,17.81
2018-05-06T06:26:04.071Z,17.80
2018-05-06T06:28:31.461Z,17.95
2018-05-06T06:30:58.847Z,18.04
2018-05-06T06:33:26.249Z,18.00
2018-05-06T06:35:53.728Z,18.02
2018-05-06T06:38:21.287Z,18.18
2018-05-06T06:40:48.700Z,18.27
2018-05-06T06:43:16.222Z,18.19
2018-05-06T06:45:43.616Z,18.23
2018-05-06T06:48:11.003Z,18.29
2018-05-06T06:50:38.396Z,18.25
2018-05-06T06:53:05.775Z,18.30
2018-05-06T06:55:33.162Z,18.28
2018-05-06T06:58:00.550Z,18.44
2018-05-06T07:00:27.956Z,18.48
2018-05-06T07:02:55.339Z,18.60
2018-05-06T07:05:22.717Z,18.46
2018-05-06T07:07:50.103Z,18.48
2018-05-06T07:10:19.716Z,18.59
2018-05-06T07:12:47.305Z,18.55
2018-05-06T07:15:14.712Z,18.33
2018-05-06T07:17:42.100Z,18.51
2018-05-06T07:20:09.490Z,18.46
2018-05-06T07:22:36.887Z,18.68
2018-05-06T07:25:04.291Z,18.71
2018-05-06T07:27:31.715Z,18.85
2018-05-06T07:29:59.109Z,18.91
2018-05-06T07:32:26.492Z,19.13
2018-05-06T07:34:53.884Z,19.11
2018-05-06T07:37:21.298Z,19.07
2018-05-06T07:39:48.683Z,19.13
2018-05-06T07:42:16.072Z,19.19
2018-05-06T07:44:43.451Z,19.30
2018-05-06T07:47:10.847Z,19.34
2018-05-06T07:49:38.231Z,19.24
2018-05-06T07:52:05.652Z,19.43
2018-05-06T07:54:33.027Z,19.55
2018-05-06T07:57:00.443Z,19.61
2018-05-06T07:59:27.827Z,19.54
2018-05-06T08:01:55.231Z,19.58
2018-05-06T08:04:22.651Z,19.76
2018-05-06T08:06:50.008Z,19.78
2018-05-06T08:09:17.723Z,19.86
2018-05-06T08:11:45.165Z,19.94
2018-05-06T08:14:12.548Z,20.02
2018-05-06T08:16:39.996Z,19.99
2018-05-06T08:19:07.390Z,20.11
2018-05-06T08:21:34.781Z,20.15
2018-05-06T08:24:02.157Z,20.20
2018-05-06T08:26:29.552Z,20.34
2018-05-06T08:28:56.945Z,20.41
2018-05-06T08:31:24.334Z,20.42
2018-05-06T08:33:51.724Z,20.49
2018-05-06T08:36:19.131Z,20.52
2018-05-06T08:38:46.515Z,20.61
2018-05-06T08:41:13.923Z,20.66
2018-05-06T08:43:41.319Z,20.68
2018-05-06T08:46:08.699Z,20.73
2018-05-06T08:48:36.097Z,20.75
2018-05-06T08:51:03.484Z,20.84
2018-05-06T08:53:30.868Z,20.89
2018-05-06T08:55:58.258Z,20.99
2018-05-06T08:58:25.865Z,21.05
2018-05-06T09:00:53.239Z,21.01
2018-05-06T09:03:20.638Z,21.16
2018-05-06T09:05:48.072Z,21.29
2018-05-06T09:08:15.444Z,21.42
2018-05-06T09:10:42.828Z,21.39
2018-05-06T09:13:10.232Z,21.43
2018-05-06T09:15:37.614Z,21.57
2018-05-06T09:18:05.000Z,21.66
2018-05-06T09:20:32.388Z,21.66
2018-05-06T09:22:59.786Z,21.85
2018-05-06T09:25:27.248Z,21.90
2018-05-06T09:27:54.556Z,21.94
2018-05-06T09:30:21.944Z,22.00
2018-05-06T09:32:49.338Z,22.10
2018-05-06T09:35:16.727Z,22.10
2018-05-06T09:37:44.137Z,22.29
2018-05-06T09:40:11.555Z,22.25
2018-05-06T09:42:38.964Z,22.31
2018-05-06T09:45:06.351Z,22.40
2018-05-06T09:47:33.846Z,22.36
2018-05-06T09:50:01.126Z,22.62
2018-05-06T09:52:28.535Z,22.69
2018-05-06T09:54:55.919Z,22.54
2018-05-06T09:57:23.317Z,22.51
2018-05-06T09:59:50.693Z,22.61
2018-05-06T10:02:22.546Z,22.45
2018-05-06T10:04:49.911Z,22.42
2018-05-06T10:07:18.273Z,22.44
2018-05-06T10:09:45.657Z,22.44
2018-05-06T10:12:13.060Z,22.51
2018-05-06T10:14:40.439Z,22.50
2018-05-06T10:17:07.965Z,22.55
2018-05-06T10:19:35.335Z,22.59
2018-05-06T10:22:02.834Z,22.57
2018-05-06T10:24:30.233Z,22.64
2018-05-06T10:26:57.615Z,22.70
2018-05-06T10:29:24.993Z,22.78
2018-05-06T10:31:52.390Z,22.84
2018-05-06T10:34:19.771Z,22.84
2018-05-06T10:36:47.166Z,22.96
2018-05-06T10:39:14.561Z,22.95
2018-05-06T10:41:41.951Z,23.03
2018-05-06T10:44:09.364Z,23.05
2018-05-06T10:46:36.778Z,23.15
2018-05-06T10:49:04.207Z,23.21
2018-05-06T10:51:31.552Z,23.23
2018-05-06T10:53:58.939Z,23.32
2018-05-06T10:56:26.315Z,23.30
2018-05-06T10:58:53.708Z,23.47
2018-05-06T11:01:21.080Z,23.58
2018-05-06T11:03:48.498Z,23.54
2018-05-06T11:06:15.875Z,23.61
2018-05-06T11:08:43.267Z,23.62
2018-05-06T11:11:10.643Z,23.71
2018-05-06T11:13:38.035Z,23.76
2018-05-06T11:16:05.430Z,23.93
2018-05-06T11:18:32.809Z,24.04
2018-05-06T11:21:00.182Z,24.36
2018-05-06T11:23:27.608Z,24.44
2018-05-06T11:25:54.993Z,24.78
2018-05-06T11:28:22.387Z,24.91
2018-05-06T11:30:49.763Z,25.05
2018-05-06T11:33:17.156Z,25.18
2018-05-06T11:35:44.539Z,25.40
2018-05-06T11:38:12.000Z,25.54
2018-05-06T11:40:39.353Z,25.76
2018-05-06T11:43:07.719Z,26.14
2018-05-06T11:45:35.103Z,26.45
2018-05-06T11:48:02.577Z,26.74
2018-05-06T11:50:29.946Z,26.80
2018-05-06T11:52:57.273Z,26.92
2018-05-06T11:55:24.876Z,27.73
2018-05-06T11:57:52.259Z,28.12
2018-05-06T12:00:19.705Z,28.25
2018-05-06T12:02:47.165Z,28.68
2018-05-06T12:05:14.548Z,29.47
2018-05-06T12:07:41.925Z,30.00
2018-05-06T12:10:09.310Z,30.19
2018-05-06T12:12:36.715Z,30.96
2018-05-06T12:15:04.133Z,31.41
2018-05-06T12:17:31.499Z,31.84
2018-05-06T12:19:58.890Z,32.17
2018-05-06T12:22:26.277Z,32.80
2018-05-06T12:24:53.671Z,33.26
2018-05-06T12:27:21.072Z,33.47
2018-05-06T12:29:48.452Z,34.17
2018-05-06T12:32:15.833Z,34.68
2018-05-06T12:34:43.227Z,35.23
2018-05-06T12:37:10.611Z,35.54
2018-05-06T12:39:38.008Z,35.95
2018-05-06T12:42:05.380Z,36.60
2018-05-06T12:44:32.794Z,36.70
2018-05-06T12:47:00.192Z,37.20
2018-05-06T12:49:27.599Z,37.41
2018-05-06T12:51:54.966Z,37.36
2018-05-06T12:54:22.347Z,37.72
2018-05-06T12:56:49.731Z,37.83
2018-05-06T12:59:17.192Z,38.59
2018-05-06T13:01:44.575Z,38.83
2018-05-06T13:04:11.962Z,38.75
2018-05-06T13:06:39.346Z,39.08
2018-05-06T13:09:06.748Z,39.67
2018-05-06T13:11:34.135Z,39.62
2018-05-06T13:14:01.512Z,39.92
2018-05-06T13:16:28.899Z,39.68
2018-05-06T13:18:56.293Z,39.58
2018-05-06T13:21:23.675Z,39.75
2018-05-06T13:23:51.070Z,39.31
2018-05-06T13:26:19.208Z,39.23
2018-05-06T13:28:46.582Z,40.08
2018-05-06T13:31:13.970Z,39.57
2018-05-06T13:33:41.350Z,39.83
2018-05-06T13:36:08.744Z,40.64
2018-05-06T13:38:36.122Z,40.65
2018-05-06T13:41:03.530Z,40.76
2018-05-06T13:43:30.903Z,41.25
2018-05-06T13:45:58.298Z,40.93
2018-05-06T13:48:26.520Z,41.41
2018-05-06T13:50:53.891Z,41.21
2018-05-06T13:53:21.283Z,42.09
2018-05-06T13:55:49.662Z,41.63
2018-05-06T13:58:17.051Z,41.41
2018-05-06T14:00:44.436Z,40.71
2018-05-06T14:03:11.823Z,41.53
2018-05-06T14:05:39.242Z,41.31
2018-05-06T14:08:06.620Z,40.93
2018-05-06T14:10:34.013Z,41.43
2018-05-06T14:13:01.386Z,41.98
2018-05-06T14:15:28.778Z,41.70
2018-05-06T14:17:56.148Z,41.51
2018-05-06T14:20:23.546Z,42.62
2018-05-06T14:22:50.915Z,41.82
2018-05-06T14:25:18.299Z,42.20
2018-05-06T14:27:45.684Z,41.70
2018-05-06T14:30:13.068Z,42.16
2018-05-06T14:32:40.442Z,42.26
2018-05-06T14:35:07.815Z,42.05
2018-05-06T14:37:35.203Z,41.79
2018-05-06T14:40:02.592Z,42.34
2018-05-06T14:42:29.971Z,42.83
2018-05-06T14:44:57.370Z,41.94
2018-05-06T14:50:24.258Z,42.18
2018-05-06T14:52:51.631Z,41.37
2018-05-06T14:55:19.565Z,40.54
2018-05-06T14:57:47.004Z,41.76
2018-05-06T15:00:14.426Z,41.92
2018-05-06T15:02:41.802Z,42.23
2018-05-06T15:05:09.212Z,41.71
2018-05-06T15:07:36.596Z,42.19
2018-05-06T15:10:03.971Z,41.71
2018-05-06T15:12:31.358Z,41.57
2018-05-06T15:14:58.739Z,41.27
2018-05-06T15:17:26.126Z,41.03
2018-05-06T15:19:53.496Z,40.86
2018-05-06T15:22:20.881Z,41.36
2018-05-06T15:24:48.259Z,41.70
2018-05-06T15:27:15.641Z,40.86
2018-05-06T15:29:43.026Z,41.55
2018-05-06T15:32:10.414Z,41.60
2018-05-06T15:34:37.795Z,41.79
2018-05-06T15:37:05.200Z,42.14
2018-05-06T15:39:32.576Z,40.20
2018-05-06T15:42:00.115Z,41.16
2018-05-06T15:44:27.491Z,41.72
2018-05-06T15:46:54.875Z,41.43
2018-05-06T15:49:22.257Z,40.95
2018-05-06T15:51:49.832Z,41.31
2018-05-06T15:54:17.223Z,41.26
2018-05-06T15:56:44.611Z,41.75
2018-05-06T15:59:11.990Z,41.05
2018-05-06T16:01:39.385Z,40.40
2018-05-06T16:04:14.561Z,40.74
2018-05-06T16:06:41.958Z,40.99
2018-05-06T16:09:09.319Z,40.56
2018-05-06T16:11:36.718Z,40.68
2018-05-06T16:14:04.102Z,39.94
2018-05-06T16:16:31.497Z,40.24
2018-05-06T16:18:58.874Z,39.18
2018-05-06T16:21:26.292Z,37.62
2018-05-06T16:23:53.683Z,36.91
2018-05-06T16:26:21.074Z,36.15
2018-05-06T16:28:48.517Z,35.65
2018-05-06T16:31:15.903Z,35.12
2018-05-06T16:33:43.291Z,34.46
2018-05-06T16:36:10.690Z,33.95
2018-05-06T16:38:38.071Z,33.91
2018-05-06T16:41:05.467Z,33.25
2018-05-06T16:43:32.842Z,32.91
2018-05-06T16:46:00.225Z,32.38
2018-05-06T16:48:28.199Z,32.27
2018-05-06T16:50:55.589Z,31.93
2018-05-06T16:53:22.970Z,31.88
2018-05-06T16:55:50.381Z,31.73
2018-05-06T16:58:17.897Z,31.20
2018-05-06T17:00:45.272Z,31.38
2018-05-06T17:03:12.663Z,31.47
2018-05-06T17:05:40.074Z,30.97
2018-05-06T17:08:07.466Z,30.95
2018-05-06T17:10:35.771Z,30.69
2018-05-06T17:13:03.161Z,30.91
2018-05-06T17:15:30.775Z,30.39
2018-05-06T17:17:58.165Z,30.60
2018-05-06T17:20:25.538Z,30.40
2018-05-06T17:22:53.144Z,30.08
2018-05-06T17:25:20.543Z,30.20
2018-05-06T17:27:47.957Z,29.52
2018-05-06T17:30:15.330Z,29.66
2018-05-06T17:32:42.734Z,29.51
2018-05-06T17:35:10.106Z,29.92
2018-05-06T17:37:37.529Z,29.68
2018-05-06T17:40:04.902Z,29.57
2018-05-06T17:42:32.286Z,29.37
2018-05-06T17:44:59.667Z,29.21
2018-05-06T17:47:27.067Z,28.73
2018-05-06T17:49:54.449Z,28.81
2018-05-06T17:52:21.833Z,28.79
2018-05-06T17:54:49.223Z,28.67
2018-05-06T17:57:16.621Z,28.74
2018-05-06T17:59:44.087Z,28.36
2018-05-06T18:02:11.470Z,28.62
2018-05-06T18:04:38.865Z,28.60
2018-05-06T18:07:06.251Z,28.70
2018-05-06T18:09:33.630Z,28.84
2018-05-06T18:12:01.020Z,28.65
2018-05-06T18:14:28.485Z,28.30
2018-05-06T18:16:55.911Z,28.34
2018-05-06T18:19:23.314Z,28.39
2018-05-06T18:21:50.701Z,28.04
2018-05-06T18:24:18.079Z,27.84
2018-05-06T18:26:45.483Z,27.82
2018-05-06T18:29:12.857Z,27.48
2018-05-06T18:31:40.249Z,27.66
2018-05-06T18:34:07.686Z,27.80
2018-05-06T18:36:35.067Z,27.35
2018-05-06T18:39:02.446Z,27.24
2018-05-06T18:41:29.846Z,27.41
2018-05-06T18:43:57.305Z,27.08
2018-05-06T18:46:24.672Z,27.17
2018-05-06T18:48:52.058Z,27.14
2018-05-06T18:51:19.668Z,27.00
2018-05-06T18:53:47.058Z,27.24
2018-05-06T18:56:14.435Z,26.84
2018-05-06T18:58:41.836Z,26.75
2018-05-06T19:01:09.219Z,26.56
2018-05-06T19:03:36.711Z,26.52
2018-05-06T19:06:04.090Z,26.64
2018-05-06T19:08:31.583Z,26.52
2018-05-06T19:10:58.908Z,26.55
2018-05-06T19:13:26.296Z,26.47
2018-05-06T19:15:54.028Z,26.37
2018-05-06T19:18:21.813Z,26.27
2018-05-06T19:20:49.793Z,26.08
2018-05-06T19:23:18.471Z,26.00
2018-05-06T19:25:46.032Z,25.82
2018-05-06T19:28:13.648Z,25.90
2018-05-06T19:30:41.227Z,25.83
2018-05-06T19:33:08.932Z,25.56
2018-05-06T19:35:36.617Z,25.56
2018-05-06T19:38:04.327Z,25.55
2018-05-06T19:40:31.912Z,25.31
2018-05-06T19:42:59.580Z,25.36
2018-05-06T19:45:27.184Z,25.24
2018-05-06T19:47:54.864Z,25.29
2018-05-06T19:50:22.588Z,25.24
2018-05-06T19:52:50.997Z,25.18
2018-05-06T19:55:18.442Z,25.10
2018-05-06T19:57:45.834Z,24.95
2018-05-06T20:00:13.218Z,24.98
2018-05-06T20:02:40.603Z,25.05
2018-05-06T20:05:07.980Z,24.98
2018-05-06T20:07:35.362Z,24.86
2018-05-06T20:10:02.765Z,24.73
2018-05-06T20:12:30.153Z,24.68
2018-05-06T20:14:57.522Z,24.74
2018-05-06T20:17:25.013Z,24.50
2018-05-06T20:19:52.375Z,24.40
2018-05-06T20:22:19.841Z,24.33
2018-05-06T20:24:47.238Z,24.36
2018-05-06T20:27:14.715Z,24.35
2018-05-06T20:29:42.104Z,24.47
2018-05-06T20:32:09.517Z,24.32
2018-05-06T20:34:36.906Z,24.40
2018-05-06T20:37:04.662Z,24.21
2018-05-06T20:39:32.060Z,24.30
2018-05-06T20:41:59.455Z,24.43
2018-05-06T20:44:26.849Z,24.08
2018-05-06T20:46:54.236Z,24.12
2018-05-06T20:49:21.612Z,24.22
2018-05-06T20:51:49.019Z,24.37
2018-05-06T20:54:16.410Z,24.22
2018-05-06T20:56:43.961Z,24.22
2018-05-06T20:59:11.626Z,24.31
2018-05-06T21:01:38.999Z,23.69
2018-05-06T21:04:06.416Z,23.58
2018-05-06T21:06:33.799Z,23.56
2018-05-06T21:09:01.199Z,23.55
2018-05-06T21:11:28.753Z,23.66
2018-05-06T21:13:56.180Z,23.62
2018-05-06T21:16:24.464Z,23.67
2018-05-06T21:18:51.859Z,23.43
2018-05-06T21:21:19.275Z,23.73
2018-05-06T21:23:46.673Z,23.60
2018-05-06T21:26:14.057Z,23.63
2018-05-06T21:28:41.452Z,23.64
2018-05-06T21:31:08.840Z,23.67
2018-05-06T21:33:36.231Z,23.52
2018-05-06T21:36:03.677Z,23.42
2018-05-06T21:38:31.020Z,23.52
2018-05-06T21:40:58.404Z,23.63
2018-05-06T21:43:25.879Z,23.54
2018-05-06T21:45:53.175Z,23.49
2018-05-06T21:48:21.396Z,23.56
2018-05-06T21:50:48.780Z,23.34
2018-05-06T21:53:16.180Z,23.50
2018-05-06T21:55:43.589Z,23.27
2018-05-06T21:58:10.976Z,22.98
2018-05-06T22:00:38.362Z,22.88
2018-05-06T22:03:05.763Z,23.05
2018-05-06T22:05:33.147Z,22.66
2018-05-06T22:08:00.564Z,22.80
2018-05-06T22:10:27.951Z,22.64
2018-05-06T22:12:55.349Z,22.61
2018-05-06T22:15:22.739Z,22.22
2018-05-06T22:17:50.228Z,22.26
2018-05-06T22:20:17.627Z,22.24
2018-05-06T22:22:45.023Z,22.59
2018-05-06T22:25:12.479Z,22.43
2018-05-06T22:27:39.894Z,22.14
2018-05-06T22:30:07.274Z,22.25
2018-05-06T22:32:34.668Z,22.24
2018-05-06T22:35:02.154Z,22.34
2018-05-06T22:37:29.533Z,22.15
2018-05-06T22:39:56.931Z,22.19
2018-05-06T22:42:24.461Z,22.34
2018-05-06T22:44:51.861Z,22.31
2018-05-06T22:47:19.411Z,22.26
2018-05-06T22:49:46.813Z,22.20
2018-05-06T22:52:14.188Z,21.93
2018-05-06T22:54:41.572Z,21.98
2018-05-06T22:57:08.951Z,22.09
2018-05-06T22:59:36.385Z,22.34
2018-05-06T23:02:03.739Z,22.15
2018-05-06T23:04:31.171Z,21.93
2018-05-06T23:06:58.557Z,21.96
2018-05-06T23:09:25.953Z,21.88
2018-05-06T23:11:53.409Z,21.76
2018-05-06T23:14:20.799Z,21.74
2018-05-06T23:16:48.192Z,21.60
2018-05-06T23:19:15.595Z,21.61
2018-05-06T23:21:42.983Z,21.47
2018-05-06T23:24:10.413Z,21.56
2018-05-06T23:26:37.891Z,21.54
2018-05-06T23:29:05.277Z,21.34
2018-05-06T23:31:32.669Z,21.50
2018-05-06T23:34:00.084Z,21.35
2018-05-06T23:36:27.464Z,21.35
2018-05-06T23:38:56.021Z,21.23
2018-05-06T23:41:23.415Z,21.35
2018-05-06T23:43:50.830Z,21.29
2018-05-06T23:46:18.228Z,21.28
2018-05-06T23:48:45.606Z,21.12
2018-05-06T23:51:13.002Z,21.27
2018-05-06T23:53:40.397Z,21.26
2018-05-06T23:56:07.785Z,21.06
2018-05-06T23:58:35.190Z,21.14
